KLM88U EGNT-EHAM
Flight info
| Callsign | KLM88U |
|---|---|
| Flight time | 0h 57m |
| Altitude | 35000 |
| Route | GIRLI P18 GASKO/N0392F230 Y250 OBOXA/N0404F250 Y250 KEFTE/N0448F350 UY250 MAMUL L603 LAMSO |
| Aircraft | B738/M-SDE2E3FGHIRWXY/LB1 |
Departure
| Time | 2026-05-07 16:49 |
|---|---|
| Airport | Newcastle International Airport (EGNT) |
Arrival
| Time | 2026-05-07 17:46 |
|---|---|
| Airport | Amsterdam Airport Schiphol (EHAM) |
| Time | Latitude | Longitude | Altitude | Speed | Heading |
|---|---|---|---|---|---|
| 2026-05-07 15:49 | 55.03731 | -1.70670 | 266 ft | 0 kts | 185° |
| 2026-05-07 16:39 | 55.03750 | -1.70668 | 266 ft | 4 kts | 183° |
| 2026-05-07 16:39 | 55.03771 | -1.70666 | 266 ft | 4 kts | 180° |
| 2026-05-07 16:39 | 55.03796 | -1.70672 | 266 ft | 4 kts | 147° |
| 2026-05-07 16:40 | 55.03807 | -1.70701 | 266 ft | 4 kts | 94° |
| 2026-05-07 16:40 | 55.03808 | -1.70733 | 266 ft | 0 kts | 94° |
| 2026-05-07 16:42 | 55.03808 | -1.70731 | 266 ft | 1 kts | 94° |
| 2026-05-07 16:43 | 55.03806 | -1.70693 | 266 ft | 6 kts | 95° |
| 2026-05-07 16:43 | 55.03803 | -1.70587 | 266 ft | 12 kts | 94° |
| 2026-05-07 16:43 | 55.03788 | -1.70413 | 266 ft | 17 kts | 103° |
| 2026-05-07 16:43 | 55.03776 | -1.70188 | 262 ft | 20 kts | 92° |
| 2026-05-07 16:44 | 55.03775 | -1.69952 | 259 ft | 20 kts | 84° |
| 2026-05-07 16:44 | 55.03801 | -1.69693 | 257 ft | 24 kts | 75° |
| 2026-05-07 16:44 | 55.03864 | -1.69396 | 254 ft | 28 kts | 65° |
| 2026-05-07 16:44 | 55.03951 | -1.69071 | 251 ft | 30 kts | 65° |
| 2026-05-07 16:45 | 55.04033 | -1.68757 | 249 ft | 28 kts | 64° |
| 2026-05-07 16:45 | 55.04112 | -1.68458 | 247 ft | 26 kts | 65° |
| 2026-05-07 16:45 | 55.04187 | -1.68179 | 246 ft | 24 kts | 65° |
| 2026-05-07 16:45 | 55.04249 | -1.67945 | 246 ft | 20 kts | 65° |
| 2026-05-07 16:46 | 55.04297 | -1.67764 | 244 ft | 10 kts | 65° |
| 2026-05-07 16:46 | 55.04327 | -1.67650 | 243 ft | 11 kts | 64° |
| 2026-05-07 16:46 | 55.04371 | -1.67528 | 241 ft | 12 kts | 77° |
| 2026-05-07 16:46 | 55.04370 | -1.67465 | 240 ft | 0 kts | 94° |
| 2026-05-07 16:47 | 55.04369 | -1.67448 | 240 ft | 3 kts | 98° |
| 2026-05-07 16:47 | 55.04343 | -1.67396 | 240 ft | 8 kts | 158° |
| 2026-05-07 16:48 | 55.04280 | -1.67367 | 240 ft | 10 kts | 167° |
| 2026-05-07 16:48 | 55.04218 | -1.67381 | 241 ft | 9 kts | 227° |
| 2026-05-07 16:48 | 55.04205 | -1.67427 | 241 ft | 0 kts | 244° |
| 2026-05-07 16:48 | 55.04180 | -1.67519 | 243 ft | 35 kts | 245° |
| 2026-05-07 16:49 | 55.03970 | -1.68308 | 247 ft | 107 kts | 245° |
| 2026-05-07 16:49 | 55.03575 | -1.69816 | 276 ft | 163 kts | 244° |
| 2026-05-07 16:49 | 55.03083 | -1.71631 | 1022 ft | 164 kts | 244° |
| 2026-05-07 16:49 | 55.02608 | -1.73387 | 2013 ft | 159 kts | 243° |
| 2026-05-07 16:50 | 55.02080 | -1.75173 | 2743 ft | 174 kts | 231° |
| 2026-05-07 16:50 | 55.01013 | -1.76432 | 3094 ft | 203 kts | 202° |
| 2026-05-07 16:50 | 54.99608 | -1.77316 | 3504 ft | 222 kts | 201° |
| 2026-05-07 16:50 | 54.98074 | -1.78258 | 3907 ft | 243 kts | 200° |
| 2026-05-07 16:51 | 54.96458 | -1.79251 | 4819 ft | 246 kts | 200° |
| 2026-05-07 16:51 | 54.94820 | -1.80269 | 5735 ft | 251 kts | 200° |
| 2026-05-07 16:51 | 54.93189 | -1.81293 | 6705 ft | 254 kts | 201° |
| 2026-05-07 16:51 | 54.91510 | -1.82356 | 7504 ft | 258 kts | 201° |
| 2026-05-07 16:52 | 54.89838 | -1.83412 | 8320 ft | 258 kts | 199° |
| 2026-05-07 16:52 | 54.88016 | -1.83692 | 9097 ft | 269 kts | 176° |
| 2026-05-07 16:52 | 54.86172 | -1.83258 | 10013 ft | 272 kts | 175° |
| 2026-05-07 16:52 | 54.84282 | -1.82830 | 10811 ft | 275 kts | 176° |
| 2026-05-07 16:53 | 54.82370 | -1.82425 | 11647 ft | 278 kts | 176° |
| 2026-05-07 16:53 | 54.80440 | -1.82038 | 12466 ft | 281 kts | 176° |
| 2026-05-07 16:53 | 54.78482 | -1.81663 | 13388 ft | 285 kts | 177° |
| 2026-05-07 16:53 | 54.76495 | -1.81292 | 14312 ft | 288 kts | 177° |
| 2026-05-07 16:54 | 54.74490 | -1.80923 | 15175 ft | 291 kts | 176° |
| 2026-05-07 16:54 | 54.72464 | -1.80552 | 15966 ft | 296 kts | 176° |
| 2026-05-07 16:54 | 54.70408 | -1.80400 | 16710 ft | 299 kts | 187° |
| 2026-05-07 16:54 | 54.68325 | -1.81012 | 17189 ft | 312 kts | 192° |
| 2026-05-07 16:55 | 54.66111 | -1.81785 | 17356 ft | 334 kts | 192° |
| 2026-05-07 16:55 | 54.63760 | -1.82600 | 17513 ft | 354 kts | 192° |
| 2026-05-07 16:55 | 54.61327 | -1.83413 | 17882 ft | 366 kts | 191° |
| 2026-05-07 16:55 | 54.58807 | -1.84228 | 18482 ft | 370 kts | 191° |
| 2026-05-07 16:56 | 54.56257 | -1.85040 | 19115 ft | 372 kts | 191° |
| 2026-05-07 16:56 | 54.53700 | -1.85849 | 19742 ft | 374 kts | 191° |
| 2026-05-07 16:56 | 54.48526 | -1.87467 | 20894 ft | 381 kts | 191° |
| 2026-05-07 16:57 | 54.45909 | -1.88285 | 21434 ft | 385 kts | 191° |
| 2026-05-07 16:57 | 54.43255 | -1.89114 | 21954 ft | 389 kts | 191° |
| 2026-05-07 16:57 | 54.40589 | -1.89946 | 22515 ft | 392 kts | 191° |
| 2026-05-07 16:57 | 54.37893 | -1.90791 | 23060 ft | 395 kts | 191° |
| 2026-05-07 16:58 | 54.35171 | -1.91644 | 23592 ft | 398 kts | 191° |
| 2026-05-07 16:58 | 54.32437 | -1.92500 | 24026 ft | 401 kts | 190° |
| 2026-05-07 16:58 | 54.29721 | -1.93349 | 24464 ft | 403 kts | 190° |
| 2026-05-07 16:58 | 54.26952 | -1.94212 | 24892 ft | 405 kts | 190° |
| 2026-05-07 16:59 | 54.24121 | -1.94578 | 25289 ft | 409 kts | 176° |
| 2026-05-07 16:59 | 54.21321 | -1.93720 | 25721 ft | 412 kts | 164° |
| 2026-05-07 16:59 | 54.18655 | -1.91824 | 26120 ft | 416 kts | 151° |
| 2026-05-07 16:59 | 54.16176 | -1.89225 | 26548 ft | 418 kts | 149° |
| 2026-05-07 17:00 | 54.13740 | -1.86599 | 26953 ft | 420 kts | 149° |
| 2026-05-07 17:00 | 54.11253 | -1.83938 | 27353 ft | 422 kts | 149° |
| 2026-05-07 17:00 | 54.08745 | -1.81294 | 27756 ft | 424 kts | 149° |
| 2026-05-07 17:00 | 54.06216 | -1.78659 | 28144 ft | 426 kts | 149° |
| 2026-05-07 17:01 | 54.03705 | -1.76060 | 28515 ft | 427 kts | 149° |
| 2026-05-07 17:01 | 54.01152 | -1.73425 | 28882 ft | 429 kts | 149° |
| 2026-05-07 17:01 | 53.98591 | -1.70781 | 29230 ft | 431 kts | 149° |
| 2026-05-07 17:01 | 53.96020 | -1.68129 | 29608 ft | 432 kts | 149° |
| 2026-05-07 17:02 | 53.93442 | -1.65471 | 29994 ft | 433 kts | 149° |
| 2026-05-07 17:02 | 53.90857 | -1.62810 | 30295 ft | 434 kts | 149° |
| 2026-05-07 17:02 | 53.88293 | -1.60173 | 30626 ft | 434 kts | 149° |
| 2026-05-07 17:02 | 53.85714 | -1.57525 | 31040 ft | 432 kts | 149° |
| 2026-05-07 17:03 | 53.83141 | -1.54886 | 31415 ft | 431 kts | 149° |
| 2026-05-07 17:03 | 53.80571 | -1.52255 | 31702 ft | 432 kts | 149° |
| 2026-05-07 17:03 | 53.77996 | -1.49622 | 32046 ft | 432 kts | 149° |
| 2026-05-07 17:03 | 53.75438 | -1.47009 | 32460 ft | 429 kts | 148° |
| 2026-05-07 17:04 | 53.72877 | -1.44399 | 32883 ft | 427 kts | 148° |
| 2026-05-07 17:04 | 53.70331 | -1.41809 | 33215 ft | 427 kts | 148° |
| 2026-05-07 17:04 | 53.67739 | -1.39352 | 33533 ft | 427 kts | 155° |
| 2026-05-07 17:04 | 53.64993 | -1.37458 | 33871 ft | 426 kts | 158° |
| 2026-05-07 17:05 | 53.62246 | -1.35718 | 34193 ft | 425 kts | 159° |
| 2026-05-07 17:05 | 53.59477 | -1.33974 | 34410 ft | 426 kts | 159° |
| 2026-05-07 17:05 | 53.56689 | -1.32190 | 34573 ft | 428 kts | 158° |
| 2026-05-07 17:05 | 53.53904 | -1.30376 | 34788 ft | 429 kts | 158° |
| 2026-05-07 17:06 | 53.51121 | -1.28546 | 35036 ft | 429 kts | 158° |
| 2026-05-07 17:06 | 53.48331 | -1.26708 | 35221 ft | 431 kts | 158° |
| 2026-05-07 17:06 | 53.45572 | -1.24894 | 35394 ft | 432 kts | 158° |
| 2026-05-07 17:06 | 53.42927 | -1.22520 | 35536 ft | 434 kts | 141° |
| 2026-05-07 17:07 | 53.40813 | -1.18896 | 35747 ft | 435 kts | 128° |
| 2026-05-07 17:07 | 53.39296 | -1.14508 | 35915 ft | 439 kts | 112° |
| 2026-05-07 17:07 | 53.38332 | -1.09632 | 36116 ft | 441 kts | 108° |
| 2026-05-07 17:07 | 53.37462 | -1.04687 | 36278 ft | 443 kts | 108° |
| 2026-05-07 17:08 | 53.36601 | -0.99726 | 36445 ft | 444 kts | 108° |
| 2026-05-07 17:08 | 53.35724 | -0.94762 | 36641 ft | 445 kts | 108° |
| 2026-05-07 17:08 | 53.34824 | -0.89797 | 36829 ft | 445 kts | 109° |
| 2026-05-07 17:08 | 53.33918 | -0.84885 | 36979 ft | 447 kts | 109° |
| 2026-05-07 17:09 | 53.32980 | -0.79852 | 37165 ft | 448 kts | 109° |
| 2026-05-07 17:09 | 53.32063 | -0.74943 | 37332 ft | 449 kts | 109° |
| 2026-05-07 17:09 | 53.31128 | -0.69950 | 37500 ft | 450 kts | 109° |
| 2026-05-07 17:09 | 53.30190 | -0.64962 | 37664 ft | 451 kts | 109° |
| 2026-05-07 17:10 | 53.29245 | -0.59948 | 37828 ft | 451 kts | 109° |
| 2026-05-07 17:10 | 53.28296 | -0.54927 | 37992 ft | 452 kts | 109° |
| 2026-05-07 17:10 | 53.27344 | -0.49902 | 38148 ft | 453 kts | 109° |
| 2026-05-07 17:10 | 53.26390 | -0.44878 | 38303 ft | 454 kts | 109° |
| 2026-05-07 17:11 | 53.25447 | -0.39902 | 38453 ft | 455 kts | 109° |
| 2026-05-07 17:11 | 53.24495 | -0.34861 | 38575 ft | 456 kts | 109° |
| 2026-05-07 17:11 | 53.22568 | -0.24731 | 38796 ft | 458 kts | 109° |
| 2026-05-07 17:12 | 53.21586 | -0.19640 | 38984 ft | 458 kts | 110° |
| 2026-05-07 17:12 | 53.20605 | -0.14573 | 39034 ft | 460 kts | 110° |
| 2026-05-07 17:12 | 53.18632 | -0.04398 | 39046 ft | 460 kts | 110° |
| 2026-05-07 17:13 | 53.16676 | 0.05672 | 39045 ft | 458 kts | 110° |
| 2026-05-07 17:13 | 53.14716 | 0.15743 | 39050 ft | 456 kts | 110° |
| 2026-05-07 17:14 | 53.12754 | 0.25780 | 39067 ft | 454 kts | 110° |
| 2026-05-07 17:14 | 53.10796 | 0.35773 | 39068 ft | 454 kts | 108° |
| 2026-05-07 17:15 | 53.09535 | 0.44285 | 39077 ft | 455 kts | 104° |
| 2026-05-07 17:15 | 53.08258 | 0.54608 | 39069 ft | 456 kts | 103° |
| 2026-05-07 17:16 | 53.06960 | 0.64962 | 39079 ft | 457 kts | 104° |
| 2026-05-07 17:16 | 53.05613 | 0.75252 | 39084 ft | 459 kts | 104° |
| 2026-05-07 17:17 | 53.04220 | 0.85645 | 39080 ft | 461 kts | 104° |
| 2026-05-07 17:17 | 53.02806 | 0.96081 | 39078 ft | 463 kts | 104° |
| 2026-05-07 17:18 | 53.01388 | 1.06487 | 39078 ft | 464 kts | 104° |
| 2026-05-07 17:18 | 52.99945 | 1.17005 | 38479 ft | 472 kts | 104° |
| 2026-05-07 17:19 | 52.99215 | 1.22301 | 37913 ft | 468 kts | 104° |
| 2026-05-07 17:19 | 52.98488 | 1.27563 | 37334 ft | 465 kts | 104° |
| 2026-05-07 17:19 | 52.97763 | 1.32787 | 36757 ft | 462 kts | 105° |
| 2026-05-07 17:19 | 52.97044 | 1.37958 | 36161 ft | 459 kts | 105° |
| 2026-05-07 17:20 | 52.96325 | 1.43102 | 35551 ft | 456 kts | 104° |
| 2026-05-07 17:20 | 52.95606 | 1.48222 | 34912 ft | 455 kts | 104° |
| 2026-05-07 17:20 | 52.94892 | 1.53295 | 34434 ft | 449 kts | 104° |
| 2026-05-07 17:20 | 52.94184 | 1.58314 | 33849 ft | 445 kts | 104° |
| 2026-05-07 17:21 | 52.93476 | 1.63310 | 33283 ft | 441 kts | 104° |
| 2026-05-07 17:21 | 52.92784 | 1.68180 | 32790 ft | 436 kts | 104° |
| 2026-05-07 17:21 | 52.92090 | 1.73043 | 32353 ft | 430 kts | 104° |
| 2026-05-07 17:21 | 52.91404 | 1.77842 | 31910 ft | 424 kts | 104° |
| 2026-05-07 17:22 | 52.90723 | 1.82587 | 31474 ft | 419 kts | 104° |
| 2026-05-07 17:22 | 52.90050 | 1.87269 | 31046 ft | 415 kts | 104° |
| 2026-05-07 17:22 | 52.89381 | 1.91899 | 30618 ft | 410 kts | 104° |
| 2026-05-07 17:22 | 52.88721 | 1.96459 | 30198 ft | 406 kts | 104° |
| 2026-05-07 17:23 | 52.88063 | 2.00986 | 29722 ft | 402 kts | 104° |
| 2026-05-07 17:23 | 52.87411 | 2.05468 | 29293 ft | 396 kts | 104° |
| 2026-05-07 17:23 | 52.86768 | 2.09866 | 28870 ft | 391 kts | 104° |
| 2026-05-07 17:23 | 52.86139 | 2.14167 | 28454 ft | 386 kts | 104° |
| 2026-05-07 17:24 | 52.85508 | 2.18458 | 28045 ft | 382 kts | 104° |
| 2026-05-07 17:24 | 52.84880 | 2.22723 | 27630 ft | 378 kts | 104° |
| 2026-05-07 17:24 | 52.84233 | 2.26936 | 27075 ft | 378 kts | 106° |
| 2026-05-07 17:24 | 52.83504 | 2.31107 | 26658 ft | 375 kts | 107° |
| 2026-05-07 17:25 | 52.82749 | 2.35234 | 26220 ft | 373 kts | 108° |
| 2026-05-07 17:25 | 52.82004 | 2.39272 | 25812 ft | 370 kts | 108° |
| 2026-05-07 17:25 | 52.81256 | 2.43338 | 25416 ft | 369 kts | 108° |
| 2026-05-07 17:25 | 52.80515 | 2.47394 | 25011 ft | 367 kts | 108° |
| 2026-05-07 17:26 | 52.79778 | 2.51440 | 24619 ft | 369 kts | 108° |
| 2026-05-07 17:26 | 52.79028 | 2.55567 | 24221 ft | 381 kts | 108° |
| 2026-05-07 17:26 | 52.78257 | 2.59815 | 23802 ft | 386 kts | 108° |
| 2026-05-07 17:26 | 52.77489 | 2.64047 | 23322 ft | 384 kts | 108° |
| 2026-05-07 17:27 | 52.76724 | 2.68261 | 22820 ft | 381 kts | 108° |
| 2026-05-07 17:27 | 52.75966 | 2.72428 | 22423 ft | 376 kts | 108° |
| 2026-05-07 17:27 | 52.75213 | 2.76562 | 22005 ft | 373 kts | 108° |
| 2026-05-07 17:27 | 52.74466 | 2.80650 | 21578 ft | 369 kts | 108° |
| 2026-05-07 17:28 | 52.73727 | 2.84682 | 21185 ft | 366 kts | 108° |
| 2026-05-07 17:28 | 52.72991 | 2.88691 | 20771 ft | 363 kts | 108° |
| 2026-05-07 17:28 | 52.72261 | 2.92663 | 20377 ft | 361 kts | 108° |
| 2026-05-07 17:28 | 52.71542 | 2.96559 | 19981 ft | 358 kts | 108° |
| 2026-05-07 17:29 | 52.70818 | 3.00478 | 19585 ft | 356 kts | 108° |
| 2026-05-07 17:29 | 52.70097 | 3.04371 | 19186 ft | 354 kts | 108° |
| 2026-05-07 17:29 | 52.69378 | 3.08247 | 18806 ft | 352 kts | 108° |
| 2026-05-07 17:29 | 52.68661 | 3.12103 | 18418 ft | 350 kts | 108° |
| 2026-05-07 17:30 | 52.67947 | 3.15930 | 17979 ft | 349 kts | 108° |
| 2026-05-07 17:30 | 52.67236 | 3.19741 | 17564 ft | 347 kts | 108° |
| 2026-05-07 17:30 | 52.66527 | 3.23532 | 17172 ft | 344 kts | 108° |
| 2026-05-07 17:30 | 52.65821 | 3.27297 | 16792 ft | 342 kts | 108° |
| 2026-05-07 17:31 | 52.65120 | 3.31028 | 16403 ft | 339 kts | 108° |
| 2026-05-07 17:31 | 52.64432 | 3.34684 | 16023 ft | 337 kts | 108° |
| 2026-05-07 17:31 | 52.63739 | 3.38361 | 15644 ft | 335 kts | 109° |
| 2026-05-07 17:31 | 52.63047 | 3.42018 | 15250 ft | 333 kts | 108° |
| 2026-05-07 17:32 | 52.62360 | 3.45650 | 14895 ft | 332 kts | 108° |
| 2026-05-07 17:32 | 52.61674 | 3.49265 | 14515 ft | 330 kts | 109° |
| 2026-05-07 17:32 | 52.60990 | 3.52865 | 14172 ft | 328 kts | 108° |
| 2026-05-07 17:32 | 52.60307 | 3.56449 | 13765 ft | 327 kts | 108° |
| 2026-05-07 17:33 | 52.59623 | 3.60034 | 13296 ft | 328 kts | 108° |
| 2026-05-07 17:33 | 52.58943 | 3.63589 | 12945 ft | 324 kts | 108° |
| 2026-05-07 17:33 | 52.58267 | 3.67117 | 12560 ft | 323 kts | 109° |
| 2026-05-07 17:33 | 52.57592 | 3.70634 | 12182 ft | 321 kts | 108° |
| 2026-05-07 17:34 | 52.56922 | 3.74122 | 11811 ft | 319 kts | 108° |
| 2026-05-07 17:34 | 52.56255 | 3.77588 | 11445 ft | 317 kts | 108° |
| 2026-05-07 17:34 | 52.55597 | 3.81000 | 11086 ft | 315 kts | 109° |
| 2026-05-07 17:34 | 52.54936 | 3.84426 | 10722 ft | 314 kts | 109° |
| 2026-05-07 17:35 | 52.54278 | 3.87835 | 10440 ft | 310 kts | 109° |
| 2026-05-07 17:35 | 52.53634 | 3.91157 | 10311 ft | 300 kts | 108° |
| 2026-05-07 17:35 | 52.53008 | 3.94381 | 10171 ft | 292 kts | 109° |
| 2026-05-07 17:35 | 52.52321 | 3.97487 | 9893 ft | 288 kts | 120° |
| 2026-05-07 17:36 | 52.51094 | 4.00059 | 9525 ft | 285 kts | 135° |
| 2026-05-07 17:36 | 52.49716 | 4.02335 | 9198 ft | 284 kts | 136° |
| 2026-05-07 17:36 | 52.48305 | 4.04587 | 8892 ft | 281 kts | 137° |
| 2026-05-07 17:36 | 52.46910 | 4.06812 | 8599 ft | 279 kts | 137° |
| 2026-05-07 17:37 | 52.45517 | 4.09028 | 8289 ft | 277 kts | 137° |
| 2026-05-07 17:37 | 52.44133 | 4.11220 | 7970 ft | 276 kts | 137° |
| 2026-05-07 17:37 | 52.42752 | 4.13405 | 7654 ft | 275 kts | 137° |
| 2026-05-07 17:37 | 52.41383 | 4.15592 | 7303 ft | 275 kts | 137° |
| 2026-05-07 17:38 | 52.40011 | 4.17788 | 6944 ft | 275 kts | 137° |
| 2026-05-07 17:38 | 52.38633 | 4.19988 | 6528 ft | 278 kts | 137° |
| 2026-05-07 17:38 | 52.37267 | 4.22176 | 6107 ft | 279 kts | 137° |
| 2026-05-07 17:38 | 52.35879 | 4.24404 | 5725 ft | 279 kts | 137° |
| 2026-05-07 17:39 | 52.34487 | 4.26614 | 5334 ft | 275 kts | 137° |
| 2026-05-07 17:39 | 52.33115 | 4.28760 | 4898 ft | 270 kts | 137° |
| 2026-05-07 17:39 | 52.31777 | 4.30831 | 4612 ft | 260 kts | 137° |
| 2026-05-07 17:39 | 52.30459 | 4.32850 | 4356 ft | 258 kts | 137° |
| 2026-05-07 17:40 | 52.29153 | 4.34827 | 4133 ft | 254 kts | 137° |
| 2026-05-07 17:40 | 52.27874 | 4.36747 | 3905 ft | 243 kts | 137° |
| 2026-05-07 17:40 | 52.26650 | 4.38569 | 3672 ft | 233 kts | 137° |
| 2026-05-07 17:40 | 52.25484 | 4.40281 | 3473 ft | 226 kts | 137° |
| 2026-05-07 17:41 | 52.24304 | 4.41999 | 3274 ft | 228 kts | 137° |
| 2026-05-07 17:41 | 52.23134 | 4.43690 | 3081 ft | 219 kts | 136° |
| 2026-05-07 17:41 | 52.22274 | 4.45618 | 2892 ft | 206 kts | 106° |
| 2026-05-07 17:41 | 52.22102 | 4.47845 | 2712 ft | 193 kts | 92° |
| 2026-05-07 17:42 | 52.22034 | 4.49975 | 2555 ft | 182 kts | 92° |
| 2026-05-07 17:42 | 52.21966 | 4.52020 | 2438 ft | 178 kts | 92° |
| 2026-05-07 17:42 | 52.21896 | 4.54017 | 2325 ft | 176 kts | 92° |
| 2026-05-07 17:42 | 52.22085 | 4.55942 | 2186 ft | 175 kts | 59° |
| 2026-05-07 17:43 | 52.22783 | 4.57602 | 2131 ft | 182 kts | 59° |
| 2026-05-07 17:43 | 52.23413 | 4.59314 | 2011 ft | 173 kts | 59° |
| 2026-05-07 17:43 | 52.24021 | 4.60935 | 1817 ft | 164 kts | 59° |
| 2026-05-07 17:43 | 52.24613 | 4.62490 | 1605 ft | 157 kts | 58° |
| 2026-05-07 17:44 | 52.25195 | 4.64011 | 1400 ft | 160 kts | 57° |
| 2026-05-07 17:44 | 52.25773 | 4.65524 | 1204 ft | 152 kts | 57° |
| 2026-05-07 17:44 | 52.26314 | 4.66938 | 984 ft | 142 kts | 57° |
| 2026-05-07 17:44 | 52.26826 | 4.68277 | 791 ft | 137 kts | 56° |
| 2026-05-07 17:45 | 52.27332 | 4.69599 | 600 ft | 140 kts | 57° |
| 2026-05-07 17:45 | 52.27857 | 4.70990 | 413 ft | 142 kts | 57° |
| 2026-05-07 17:45 | 52.28384 | 4.72367 | 224 ft | 147 kts | 57° |
| 2026-05-07 17:45 | 52.28924 | 4.73759 | 37 ft | 144 kts | 57° |
| 2026-05-07 17:46 | 52.29427 | 4.75069 | -3 ft | 119 kts | 57° |
| 2026-05-07 17:46 | 52.29787 | 4.76003 | -5 ft | 75 kts | 58° |
| 2026-05-07 17:46 | 52.29975 | 4.76476 | -3 ft | 28 kts | 44° |
| 2026-05-07 17:46 | 52.30135 | 4.76632 | -2 ft | 26 kts | 27° |
| 2026-05-07 17:47 | 52.30195 | 4.76683 | -2 ft | 0 kts | 28° |
| 2026-05-07 17:47 | 52.30212 | 4.76697 | -2 ft | 5 kts | 27° |
| 2026-05-07 17:47 | 52.30253 | 4.76732 | -2 ft | 0 kts | 27° |
| 2026-05-07 17:48 | 52.30255 | 4.76734 | -2 ft | 2 kts | 27° |
| 2026-05-07 17:48 | 52.30281 | 4.76761 | -2 ft | 7 kts | 37° |
| 2026-05-07 17:48 | 52.30326 | 4.76849 | -2 ft | 13 kts | 53° |
| 2026-05-07 17:48 | 52.30379 | 4.77000 | -2 ft | 18 kts | 56° |
| 2026-05-07 17:49 | 52.30455 | 4.77191 | -2 ft | 22 kts | 60° |
| 2026-05-07 17:49 | 52.30536 | 4.77408 | -2 ft | 22 kts | 56° |
| 2026-05-07 17:49 | 52.30640 | 4.77582 | -2 ft | 22 kts | 13° |
| 2026-05-07 17:49 | 52.30788 | 4.77600 | -2 ft | 21 kts | 3° |
| 2026-05-07 17:50 | 52.30939 | 4.77614 | -2 ft | 22 kts | 3° |
| 2026-05-07 17:50 | 52.31023 | 4.77563 | -2 ft | 13 kts | 301° |
| 2026-05-07 17:50 | 52.31067 | 4.77436 | -2 ft | 13 kts | 295° |
| 2026-05-07 17:50 | 52.31073 | 4.77292 | -2 ft | 12 kts | 273° |
| 2026-05-07 17:51 | 52.31077 | 4.77160 | -2 ft | 6 kts | 273° |
| 2026-05-07 17:51 | 52.31048 | 4.77123 | -2 ft | 6 kts | 185° |
| 2026-05-07 17:51 | 52.31013 | 4.77119 | -2 ft | 3 kts | 183° |
| 2026-05-07 17:51 | 52.31008 | 4.77119 | -2 ft | 0 kts | 183° |